createdAt,value
2022-09-14T00:04:45.098Z,88.17
2022-09-14T00:09:52.636Z,90.19
2022-09-14T00:15:20.965Z,91.18
2022-09-14T00:20:22.702Z,90.38
2022-09-14T00:25:27.648Z,90.75
2022-09-14T00:30:29.445Z,91.17
2022-09-14T00:35:31.133Z,91.52
2022-09-14T00:40:32.887Z,91.56
2022-09-14T00:45:45.117Z,91.75
2022-09-14T00:51:03.134Z,92.27
2022-09-14T00:56:05.029Z,92.23
2022-09-14T01:01:10.539Z,94.14
2022-09-14T01:06:21.315Z,95.38
2022-09-14T01:11:43.219Z,96.05
2022-09-14T01:17:29.600Z,96.91
2022-09-14T01:22:40.207Z,98.70
2022-09-14T01:27:46.664Z,100.00
2022-09-14T01:32:58.071Z,100.00
2022-09-14T01:44:38.659Z,100.00
2022-09-14T01:49:55.662Z,100.00
2022-09-14T01:55:04.326Z,100.00
2022-09-14T02:00:10.943Z,100.00
2022-09-14T02:05:26.668Z,100.00
2022-09-14T02:10:29.330Z,100.00
2022-09-14T02:15:31.136Z,100.00
2022-09-14T02:20:39.300Z,100.00
2022-09-14T02:25:41.199Z,100.00
2022-09-14T02:31:19.882Z,100.00
2022-09-14T02:36:48.720Z,100.00
2022-09-14T02:41:58.553Z,100.00
2022-09-14T02:47:28.296Z,100.00
2022-09-14T02:52:55.160Z,100.00
2022-09-14T02:58:11.716Z,100.00
2022-09-14T03:03:18.264Z,100.00
2022-09-14T03:08:19.793Z,100.00
2022-09-14T03:13:27.103Z,100.00
2022-09-14T03:18:28.619Z,100.00
2022-09-14T03:23:30.429Z,100.00
2022-09-14T03:28:31.989Z,100.00
2022-09-14T03:33:39.496Z,100.00
2022-09-14T03:38:48.760Z,100.00
2022-09-14T03:43:51.705Z,100.00
2022-09-14T03:48:55.892Z,100.00
2022-09-14T03:53:57.473Z,100.00
2022-09-14T03:58:59.017Z,100.00
2022-09-14T04:04:00.679Z,100.00
2022-09-14T04:09:02.588Z,100.00
2022-09-14T04:14:05.284Z,100.00
2022-09-14T04:19:07.221Z,100.00
2022-09-14T04:24:15.560Z,100.00
2022-09-14T04:29:17.808Z,100.00
2022-09-14T04:34:19.333Z,100.00
2022-09-14T04:39:21.094Z,100.00
2022-09-14T04:44:22.620Z,100.00
2022-09-14T04:49:27.182Z,100.00
2022-09-14T04:54:45.137Z,100.00
2022-09-14T04:59:46.654Z,100.00
2022-09-14T05:04:51.214Z,100.00
2022-09-14T05:09:52.727Z,100.00
2022-09-14T05:14:54.337Z,100.00
2022-09-14T05:19:55.877Z,100.00
2022-09-14T05:24:57.403Z,100.00
2022-09-14T05:29:58.923Z,100.00
2022-09-14T05:35:00.543Z,100.00
2022-09-14T05:40:02.269Z,100.00
2022-09-14T05:45:04.481Z,100.00
2022-09-14T05:50:08.439Z,100.00
2022-09-14T05:55:09.966Z,100.00
2022-09-14T06:00:12.108Z,100.00
2022-09-14T06:05:22.255Z,100.00
2022-09-14T06:10:23.855Z,100.00
2022-09-14T06:15:25.491Z,100.00
2022-09-14T06:20:27.089Z,100.00
2022-09-14T06:25:28.665Z,100.00
2022-09-14T06:30:33.192Z,100.00
2022-09-14T06:35:34.739Z,100.00
2022-09-14T06:40:36.454Z,100.00
2022-09-14T06:45:38.020Z,100.00
2022-09-14T06:50:39.540Z,100.00
2022-09-14T06:55:41.419Z,100.00
2022-09-14T07:00:43.184Z,100.00
2022-09-14T07:05:44.724Z,100.00
2022-09-14T07:10:55.898Z,100.00
2022-09-14T07:15:57.805Z,100.00
2022-09-14T07:21:11.287Z,100.00
2022-09-14T07:26:18.530Z,100.00
2022-09-14T07:31:33.301Z,100.00
2022-09-14T07:36:36.536Z,100.00
2022-09-14T07:41:39.620Z,100.00
2022-09-14T07:46:43.320Z,100.00
2022-09-14T07:51:45.811Z,100.00
2022-09-14T07:56:49.295Z,100.00
2022-09-14T08:01:51.184Z,100.00
2022-09-14T08:06:52.812Z,100.00
2022-09-14T08:12:04.401Z,100.00
2022-09-14T08:17:05.926Z,100.00
2022-09-14T08:22:07.437Z,100.00
2022-09-14T08:27:12.227Z,100.00
2022-09-14T08:32:13.967Z,100.00
2022-09-14T08:37:15.470Z,100.00
2022-09-14T08:42:19.305Z,100.00
2022-09-14T08:47:32.270Z,100.00
2022-09-14T08:52:38.544Z,100.00
2022-09-14T08:57:44.021Z,100.00
2022-09-14T09:03:19.686Z,100.00
2022-09-14T09:08:39.814Z,100.00
2022-09-14T09:13:43.005Z,100.00
2022-09-14T09:18:49.062Z,100.00
2022-09-14T09:23:51.001Z,100.00
2022-09-14T09:28:54.839Z,100.00
2022-09-14T09:33:56.433Z,95.17
2022-09-14T09:39:04.284Z,90.56
2022-09-14T09:44:11.142Z,90.30
2022-09-14T09:49:42.512Z,87.53
2022-09-14T09:54:51.040Z,88.55
2022-09-14T10:00:10.819Z,88.82
2022-09-14T10:05:13.701Z,89.26
2022-09-14T10:10:19.308Z,87.67
2022-09-14T10:15:34.944Z,87.56
2022-09-14T10:20:41.308Z,85.37
2022-09-14T10:25:42.968Z,86.44
2022-09-14T10:30:51.108Z,85.48
2022-09-14T10:36:14.767Z,82.82
2022-09-14T10:41:39.204Z,81.73
2022-09-14T10:47:21.787Z,79.20
2022-09-14T10:52:40.408Z,79.73
2022-09-14T10:58:01.961Z,76.37
2022-09-14T11:03:24.545Z,74.43
2022-09-14T11:08:40.799Z,73.01
2022-09-14T11:14:02.204Z,70.09
2022-09-14T11:19:22.812Z,70.90
2022-09-14T11:24:46.365Z,69.71
2022-09-14T11:29:53.810Z,66.23
2022-09-14T11:35:02.195Z,65.30
2022-09-14T11:40:15.045Z,65.01
2022-09-14T11:45:23.691Z,65.67
2022-09-14T11:50:31.562Z,66.41
2022-09-14T11:55:34.028Z,66.82
2022-09-14T12:01:03.678Z,67.53
2022-09-14T12:06:30.751Z,68.85
2022-09-14T12:11:36.074Z,70.82
2022-09-14T12:17:22.803Z,72.16
2022-09-14T12:22:32.783Z,79.65
2022-09-14T12:27:37.950Z,91.06
2022-09-14T12:32:42.730Z,98.77
2022-09-14T12:37:46.735Z,100.00
2022-09-14T12:42:48.284Z,100.00
2022-09-14T12:47:50.987Z,100.00
2022-09-14T12:53:18.214Z,100.00
2022-09-14T12:58:41.923Z,100.00
2022-09-14T13:03:50.826Z,100.00
2022-09-14T13:08:58.833Z,100.00
2022-09-14T13:14:01.821Z,100.00
2022-09-14T13:19:08.996Z,100.00
2022-09-14T13:24:28.153Z,100.00
2022-09-14T13:29:31.110Z,100.00
2022-09-14T13:34:37.063Z,100.00
2022-09-14T13:39:50.668Z,100.00
2022-09-14T13:44:53.023Z,100.00
2022-09-14T13:49:55.365Z,100.00
2022-09-14T13:55:38.656Z,100.00
2022-09-14T14:00:53.902Z,100.00
2022-09-14T14:05:55.743Z,100.00
2022-09-14T14:10:58.380Z,100.00
2022-09-14T14:16:20.405Z,100.00
2022-09-14T14:21:21.983Z,100.00
2022-09-14T14:26:27.440Z,100.00
2022-09-14T14:31:29.111Z,100.00
2022-09-14T14:36:30.765Z,100.00
2022-09-14T14:41:32.340Z,100.00
2022-09-14T14:46:34.187Z,100.00
2022-09-14T14:51:35.723Z,100.00
2022-09-14T14:56:38.485Z,100.00
2022-09-14T15:01:40.017Z,100.00
2022-09-14T15:06:41.750Z,100.00
2022-09-14T15:11:43.496Z,100.00
2022-09-14T15:16:46.238Z,100.00
2022-09-14T15:21:47.821Z,100.00
2022-09-14T15:26:49.369Z,100.00
2022-09-14T15:31:50.973Z,100.00
2022-09-14T15:36:54.033Z,100.00
2022-09-14T15:41:56.290Z,100.00
2022-09-14T15:46:57.896Z,100.00
2022-09-14T15:51:59.416Z,100.00
2022-09-14T15:57:01.333Z,100.00
2022-09-14T16:02:03.938Z,100.00
2022-09-14T16:07:09.781Z,100.00
2022-09-14T16:12:12.704Z,100.00
2022-09-14T16:17:14.327Z,100.00
2022-09-14T16:22:15.929Z,100.00
2022-09-14T16:27:17.503Z,100.00
2022-09-14T16:32:19.054Z,100.00
2022-09-14T16:37:20.819Z,100.00
2022-09-14T16:42:22.352Z,100.00
2022-09-14T16:47:25.668Z,100.00
2022-09-14T16:52:28.577Z,100.00
2022-09-14T16:57:30.088Z,100.00
2022-09-14T17:02:34.053Z,100.00
2022-09-14T17:07:35.632Z,100.00
2022-09-14T17:12:37.172Z,100.00
2022-09-14T17:17:38.805Z,100.00
2022-09-14T17:22:40.314Z,100.00
2022-09-14T17:27:41.873Z,100.00
2022-09-14T17:32:43.405Z,100.00
2022-09-14T17:37:44.975Z,100.00
2022-09-14T17:42:46.504Z,100.00
2022-09-14T17:47:48.033Z,100.00
2022-09-14T17:52:52.581Z,100.00
2022-09-14T17:57:54.150Z,100.00
2022-09-14T18:02:55.745Z,100.00
2022-09-14T18:07:57.744Z,100.00
2022-09-14T18:12:59.312Z,100.00
2022-09-14T18:18:00.906Z,100.00
2022-09-14T18:23:02.411Z,100.00
2022-09-14T18:28:03.920Z,100.00
2022-09-14T18:33:05.551Z,100.00
2022-09-14T18:38:07.690Z,100.00
2022-09-14T18:43:09.215Z,100.00
2022-09-14T18:48:10.853Z,100.00
2022-09-14T18:53:13.128Z,100.00
2022-09-14T18:58:14.651Z,100.00
2022-09-14T19:03:16.163Z,100.00
2022-09-14T19:08:17.683Z,100.00
2022-09-14T19:13:19.209Z,100.00
2022-09-14T19:18:20.751Z,100.00
2022-09-14T19:23:22.256Z,100.00
2022-09-14T19:28:23.786Z,100.00
2022-09-14T19:33:25.695Z,100.00
2022-09-14T19:38:28.765Z,100.00
2022-09-14T19:43:32.240Z,100.00
2022-09-14T19:48:34.735Z,100.00
2022-09-14T19:53:37.177Z,100.00
2022-09-14T19:58:40.967Z,100.00
2022-09-14T20:03:43.705Z,100.00
2022-09-14T20:08:46.831Z,100.00
2022-09-14T20:13:48.533Z,100.00
2022-09-14T20:18:51.619Z,100.00
2022-09-14T20:24:18.265Z,100.00
2022-09-14T20:29:22.709Z,100.00
2022-09-14T20:34:24.771Z,100.00
2022-09-14T20:39:27.310Z,100.00
2022-09-14T20:44:28.850Z,100.00
2022-09-14T20:49:30.377Z,100.00
2022-09-14T20:54:31.983Z,100.00
2022-09-14T20:59:33.711Z,100.00
2022-09-14T21:04:35.678Z,100.00
2022-09-14T21:09:37.197Z,100.00
2022-09-14T21:14:38.800Z,100.00
2022-09-14T21:19:40.396Z,100.00
2022-09-14T21:24:41.915Z,100.00
2022-09-14T21:29:43.416Z,100.00
2022-09-14T21:34:45.302Z,100.00
2022-09-14T21:39:47.676Z,100.00
2022-09-14T21:44:49.278Z,100.00
2022-09-14T21:49:50.809Z,100.00
2022-09-14T21:54:52.355Z,100.00
2022-09-14T21:59:53.881Z,100.00
2022-09-14T22:04:55.397Z,100.00
2022-09-14T22:09:56.943Z,100.00
2022-09-14T22:14:58.456Z,100.00
2022-09-14T22:20:00.683Z,100.00
2022-09-14T22:25:02.241Z,100.00
2022-09-14T22:30:04.005Z,100.00
2022-09-14T22:35:05.805Z,100.00
2022-09-14T22:40:07.807Z,100.00
2022-09-14T22:45:09.852Z,100.00
2022-09-14T22:50:11.413Z,100.00
2022-09-14T22:55:13.845Z,100.00
2022-09-14T23:00:15.652Z,100.00
2022-09-14T23:05:17.440Z,100.00
2022-09-14T23:10:19.052Z,100.00
2022-09-14T23:15:20.692Z,100.00
2022-09-14T23:20:22.331Z,100.00
2022-09-14T23:25:26.422Z,100.00
2022-09-14T23:30:28.151Z,100.00
2022-09-14T23:35:30.079Z,100.00
2022-09-14T23:40:31.645Z,100.00
2022-09-14T23:45:33.226Z,100.00
2022-09-14T23:50:35.025Z,100.00
2022-09-14T23:55:36.774Z,100.00
